Time;durP1;ratioP1;P1;durP2;ratioP2;P2;SDS_P1;SDS_P2;PMS_P1;PMS_P2;Temp;Humidity;BMP_temperature;BMP_pressure;BME280_temperature;BME280_humidity;BME280_pressure;Samples;Min_cycle;Max_cycle;Signal;HPM_P1;HPM_P2
2022/09/30 00:02:32;;;;;;;0.70;0.70;;;10.90;99.90;11.30;100591.00;;;;5075482;28;20193;-66
2022/09/30 00:05:06;;;;;;;0.67;0.67;;;10.90;99.90;10.90;100604.00;;;;5075644;28;20183;-67
2022/09/30 00:07:37;;;;;;;0.70;0.70;;;10.60;99.90;10.40;100606.00;;;;5091174;28;20633;-66
2022/09/30 00:10:09;;;;;;;0.70;0.70;;;10.20;99.90;10.30;100614.00;;;;5074182;28;20216;-67
2022/09/30 00:12:40;;;;;;;0.60;0.60;;;10.00;99.90;10.30;100600.00;;;;5075741;28;20206;-66
2022/09/30 00:15:09;;;;;;;0.70;0.70;;;10.00;99.90;10.50;100611.00;;;;5075463;28;20186;-66
2022/09/30 00:17:43;;;;;;;0.73;0.73;;;9.90;99.90;10.30;100551.00;;;;5075707;28;20182;-66
2022/09/30 00:20:18;;;;;;;0.67;0.67;;;9.80;99.90;10.10;100616.00;;;;5075277;28;20673;-66
2022/09/30 00:22:49;;;;;;;0.70;0.70;;;9.70;99.90;10.10;100604.00;;;;5075298;28;20188;-66
2022/09/30 00:25:23;;;;;;;0.87;0.87;;;9.60;99.90;10.00;100599.00;;;;5090950;28;20182;-66
2022/09/30 00:27:55;;;;;;;0.60;0.60;;;9.60;99.90;10.10;100607.00;;;;5074204;28;20188;-65
2022/09/30 00:30:30;;;;;;;1.97;1.87;;;9.50;99.90;10.00;100613.00;;;;5091017;28;20181;-66
2022/09/30 00:33:07;;;;;;;0.60;0.60;;;9.50;99.90;10.00;100601.00;;;;5090145;28;20217;-66
2022/09/30 00:35:38;;;;;;;0.60;0.60;;;9.50;99.90;10.30;100609.00;;;;5090403;28;20320;-66
2022/09/30 00:38:07;;;;;;;1.10;1.10;;;9.70;99.90;10.50;100547.00;;;;5090679;28;20181;-66
2022/09/30 00:40:41;;;;;;;0.70;0.70;;;9.80;99.90;10.70;100602.00;;;;5090909;28;20624;-66
2022/09/30 00:43:36;;;;;;;0.60;0.60;;;10.00;99.90;10.60;100602.00;;;;5090324;28;20185;-66
2022/09/30 00:46:38;;;;;;;0.60;0.60;;;10.10;99.90;10.50;100599.00;;;;5091130;28;20200;-66
2022/09/30 00:49:24;;;;;;;0.70;0.70;;;10.00;99.90;9.90;100604.00;;;;5090735;28;20208;-66
2022/09/30 00:51:59;;;;;;;0.70;0.70;;;9.60;99.90;10.10;100598.00;;;;5090179;28;20204;-67
2022/09/30 00:54:36;;;;;;;0.70;0.70;;;9.50;99.90;10.10;100612.00;;;;5089623;28;20173;-67
2022/09/30 00:57:11;;;;;;;0.70;0.70;;;9.50;99.90;9.90;100606.00;;;;5089940;28;20634;-66
2022/09/30 00:59:46;;;;;;;1.83;1.83;;;9.40;99.90;9.60;100612.00;;;;5074539;28;20721;-67
2022/09/30 01:02:21;;;;;;;0.70;0.70;;;9.30;99.90;9.70;100616.00;;;;5089995;28;20291;-66
2022/09/30 01:04:55;;;;;;;0.60;0.60;;;9.20;99.90;9.60;100608.00;;;;5090175;28;20631;-66
2022/09/30 01:07:23;;;;;;;0.80;0.80;;;9.20;99.90;9.90;100617.00;;;;5074569;28;20177;-67
2022/09/30 01:09:50;;;;;;;1.03;1.03;;;9.30;99.90;10.10;100610.00;;;;5089791;28;20180;-67
2022/09/30 01:12:25;;;;;;;0.60;0.60;;;9.50;99.90;10.20;100602.00;;;;5090167;28;20197;-67
2022/09/30 01:15:00;;;;;;;0.70;0.70;;;9.50;99.90;10.30;100586.00;;;;5089774;28;20238;-66
2022/09/30 01:17:41;;;;;;;0.60;0.60;;;9.60;99.90;10.60;100606.00;;;;5073547;28;20192;-66
2022/09/30 01:20:43;;;;;;;1.33;1.33;;;9.80;99.90;10.60;100604.00;;;;5074226;28;20181;-65
2022/09/30 01:23:46;;;;;;;0.60;0.60;;;9.90;99.90;10.40;100611.00;;;;5073991;28;20176;-66
2022/09/30 01:27:03;;;;;;;0.70;0.70;;;9.90;99.90;10.20;100608.00;;;;5090088;28;20166;-66
2022/09/30 01:29:49;;;;;;;0.70;0.70;;;9.80;99.90;9.90;100605.00;;;;5063474;28;20200;-66
2022/09/30 01:32:37;;;;;;;0.70;0.70;;;9.60;99.90;9.70;100609.00;;;;5073543;28;20248;-66
2022/09/30 01:35:23;;;;;;;1.33;1.33;;;9.30;99.90;9.80;100618.00;;;;5073747;28;20170;-66
2022/09/30 01:38:41;;;;;;;0.60;0.60;;;9.20;99.90;10.20;100611.00;;;;5073656;28;20188;-66
2022/09/30 01:41:51;;;;;;;0.70;0.70;;;9.40;99.90;9.30;100616.00;;;;5038779;28;20190;-66
2022/09/30 01:44:33;;;;;;;0.70;0.70;;;9.10;99.90;9.60;100601.00;;;;5089233;28;20181;-66
2022/09/30 01:47:30;;;;;;;0.70;0.70;;;9.10;99.90;9.80;100606.00;;;;5073917;28;20194;-67
2022/09/30 01:50:15;;;;;;;0.83;0.83;;;9.20;99.90;9.50;100612.00;;;;5073493;28;20320;-66
2022/09/30 01:53:00;;;;;;;0.57;0.57;;;9.20;99.90;9.10;100614.00;;;;5089329;28;20273;-66
2022/09/30 01:55:38;;;;;;;0.60;0.60;;;8.90;99.90;8.70;100607.00;;;;5088968;28;20170;-66
2022/09/30 01:58:40;;;;;;;0.50;0.50;;;8.60;99.90;8.60;100631.00;;;;5089384;28;20174;-66
2022/09/30 02:01:31;;;;;;;1.07;1.07;;;8.50;99.90;8.80;100629.00;;;;5072592;28;20229;-66
2022/09/30 02:04:28;;;;;;;0.60;0.60;;;8.40;99.90;9.30;100619.00;;;;5089333;28;20189;-66
2022/09/30 02:07:04;;;;;;;0.90;0.90;;;8.80;99.90;9.40;100625.00;;;;5071956;28;20179;-66
2022/09/30 02:09:45;;;;;;;0.60;0.60;;;8.90;99.90;8.90;100598.00;;;;5089173;28;20173;-66
2022/09/30 02:12:20;;;;;;;0.70;0.70;;;8.60;99.90;8.70;100617.00;;;;5089181;28;20250;-66
2022/09/30 02:15:12;;;;;;;0.70;0.70;;;8.50;99.90;8.80;100608.00;;;;5089065;28;20202;-66
2022/09/30 02:17:58;;;;;;;0.80;0.80;;;8.40;99.90;8.20;100607.00;;;;5089224;28;20178;-66
2022/09/30 02:20:32;;;;;;;0.50;0.50;;;8.20;99.90;8.00;100599.00;;;;5088728;28;20264;-65
2022/09/30 02:23:20;;;;;;;0.43;0.43;;;8.00;99.90;8.10;100595.00;;;;5088831;28;20210;-65
2022/09/30 02:26:04;;;;;;;0.60;0.60;;;8.00;99.90;8.40;100590.00;;;;5089031;28;20177;-66
2022/09/30 02:28:50;;;;;;;0.60;0.60;;;8.10;99.90;8.30;100603.00;;;;5088599;28;20184;-66
2022/09/30 02:31:20;;;;;;;0.50;0.50;;;8.10;99.90;8.30;100609.00;;;;5088356;28;20240;-66
2022/09/30 02:33:55;;;;;;;0.70;0.70;;;8.10;99.90;8.70;100613.00;;;;5088341;28;20172;-66
2022/09/30 02:36:32;;;;;;;1.00;1.00;;;8.20;99.90;8.90;100547.00;;;;5071581;28;20262;-67
2022/09/30 02:39:22;;;;;;;0.60;0.60;;;8.40;99.90;8.90;100625.00;;;;5088861;28;20210;-66
2022/09/30 02:41:59;;;;;;;0.70;0.70;;;8.30;99.90;9.10;100619.00;;;;5088792;28;20632;-66
2022/09/30 02:44:30;;;;;;;4.03;3.57;;;8.50;99.90;9.30;100629.00;;;;5088572;28;20626;-66
2022/09/30 02:47:43;;;;;;;2.13;2.03;;;8.60;99.90;9.30;100628.00;;;;5088508;28;20230;-66
2022/09/30 02:50:43;;;;;;;0.60;0.60;;;8.70;99.90;9.00;100634.00;;;;5069361;28;20198;-66
2022/09/30 02:53:39;;;;;;;0.70;0.70;;;8.70;99.90;9.60;100626.00;;;;5071722;28;20223;-66
2022/09/30 02:56:52;;;;;;;0.60;0.60;;;8.90;99.90;9.50;100628.00;;;;5088641;28;20177;-66
2022/09/30 02:59:25;;;;;;;0.70;0.70;;;8.90;99.90;9.10;100627.00;;;;5071694;28;20169;-67
2022/09/30 03:01:54;;;;;;;0.93;0.93;;;8.90;99.90;9.20;100629.00;;;;5088858;28;20186;-67
2022/09/30 03:04:31;;;;;;;1.00;1.00;;;8.90;99.90;8.80;100632.00;;;;5088253;28;20239;-66
2022/09/30 03:07:14;;;;;;;12.03;11.20;;;8.70;99.90;8.80;100632.00;;;;5088427;28;20181;-66
2022/09/30 03:09:47;;;;;;;0.60;0.60;;;8.70;99.90;9.30;100606.00;;;;5088078;28;20180;-66
2022/09/30 03:12:47;;;;;;;0.70;0.70;;;8.80;99.90;9.20;100609.00;;;;5071321;28;20362;-66
2022/09/30 03:16:00;;;;;;;0.70;0.70;;;8.80;99.90;8.80;100614.00;;;;5088390;28;20192;-66
2022/09/30 03:18:56;;;;;;;0.60;0.60;;;8.70;99.90;9.40;100627.00;;;;5073809;28;20227;-65
2022/09/30 03:22:03;;;;;;;1.67;1.67;;;8.80;99.90;9.30;100627.00;;;;5086876;28;20204;-66
2022/09/30 03:25:08;;;;;;;0.60;0.60;;;8.80;99.90;9.30;100630.00;;;;5056489;28;20548;-66
2022/09/30 03:28:23;;;;;;;0.70;0.70;;;8.80;99.90;9.50;100636.00;;;;5056211;28;20683;-66
2022/09/30 03:31:10;;;;;;;0.70;0.70;;;8.90;99.90;9.60;100635.00;;;;5056469;28;20185;-66
2022/09/30 03:33:57;;;;;;;0.90;0.90;;;9.10;99.90;9.30;100640.00;;;;5056169;28;20199;-66
2022/09/30 03:37:14;;;;;;;1.53;1.47;;;9.00;99.90;9.10;100644.00;;;;5071441;28;20655;-66
2022/09/30 03:40:33;;;;;;;0.77;0.77;;;8.80;99.90;9.20;100654.00;;;;5055891;28;20194;-66
2022/09/30 03:43:13;;;;;;;0.70;0.70;;;8.80;99.90;9.10;100662.00;;;;5055409;28;20194;-66
2022/09/30 03:45:54;;;;;;;0.67;0.67;;;8.70;99.90;8.70;100663.00;;;;5056293;28;20253;-66
2022/09/30 03:48:21;;;;;;;0.77;0.77;;;8.60;99.90;8.70;100617.00;;;;5071049;28;20182;-66
2022/09/30 03:50:51;;;;;;;0.70;0.70;;;8.50;99.90;9.00;100669.00;;;;5071881;28;20635;-66
2022/09/30 03:53:17;;;;;;;0.93;0.93;;;8.50;99.90;9.00;100671.00;;;;5070999;28;20202;-66
2022/09/30 03:55:51;;;;;;;0.70;0.70;;;8.60;99.90;9.00;100681.00;;;;5071918;28;20698;-66
2022/09/30 03:58:23;;;;;;;0.70;0.70;;;8.60;99.90;9.00;100676.00;;;;5071156;28;20183;-66
2022/09/30 04:00:56;;;;;;;0.80;0.80;;;8.70;99.90;9.00;100672.00;;;;5055812;28;20187;-66
2022/09/30 04:03:22;;;;;;;5.87;5.43;;;8.60;99.90;9.10;100668.00;;;;5071064;28;20194;-66
2022/09/30 04:05:51;;;;;;;0.70;0.70;;;8.60;99.90;9.20;100687.00;;;;5070963;28;20323;-66
2022/09/30 04:08:16;;;;;;;0.70;0.70;;;8.70;99.90;9.20;100666.00;;;;5055643;28;20179;-66
2022/09/30 04:10:45;;;;;;;1.73;1.63;;;8.70;99.90;9.20;100683.00;;;;5054581;28;20183;-66
2022/09/30 04:13:12;;;;;;;0.70;0.70;;;8.70;99.90;8.90;100683.00;;;;5055480;28;20216;-66
2022/09/30 04:15:39;;;;;;;0.70;0.70;;;8.60;99.90;8.80;100682.00;;;;5071259;28;20279;-66
2022/09/30 04:18:05;;;;;;;0.80;0.80;;;8.50;99.90;9.40;100687.00;;;;5070736;28;20165;-65
2022/09/30 04:20:32;;;;;;;0.70;0.70;;;8.80;99.90;8.80;100677.00;;;;5055602;28;20184;-66
2022/09/30 04:23:03;;;;;;;0.80;0.80;;;8.60;99.90;9.00;100679.00;;;;5055494;28;20266;-66
2022/09/30 04:25:29;;;;;;;0.80;0.80;;;8.50;99.90;9.10;100709.00;;;;5055492;28;20181;-66
2022/09/30 04:27:55;;;;;;;0.80;0.80;;;8.60;99.90;9.00;100700.00;;;;5070850;28;20635;-66
2022/09/30 04:30:24;;;;;;;9.27;8.97;;;8.50;99.90;9.10;100697.00;;;;5055329;28;20193;-66
2022/09/30 04:32:55;;;;;;;0.90;0.90;;;8.50;99.90;9.30;100699.00;;;;5054445;28;20250;-66
2022/09/30 04:35:23;;;;;;;0.90;0.90;;;8.70;99.90;8.70;100707.00;;;;5055270;28;20185;-66
2022/09/30 04:37:58;;;;;;;0.97;0.97;;;8.50;99.90;8.60;100710.00;;;;5070614;28;20181;-66
2022/09/30 04:40:25;;;;;;;0.80;0.80;;;8.30;99.90;8.60;100703.00;;;;5053351;28;20211;-66
2022/09/30 04:42:55;;;;;;;7.00;6.57;;;8.30;99.90;8.90;100711.00;;;;5070747;28;20188;-66
2022/09/30 04:45:24;;;;;;;0.87;0.87;;;8.30;99.90;8.90;100708.00;;;;5054471;28;20631;-66
2022/09/30 04:47:56;;;;;;;1.00;1.00;;;8.30;99.90;8.90;100699.00;;;;5070258;28;20268;-66
2022/09/30 04:50:21;;;;;;;0.93;0.93;;;8.40;99.90;8.70;100700.00;;;;5070025;28;20185;-66
2022/09/30 04:53:03;;;;;;;0.90;0.90;;;8.30;99.90;8.90;100713.00;;;;5054619;28;20227;-66
2022/09/30 04:55:32;;;;;;;0.80;0.80;;;8.40;99.90;8.70;100713.00;;;;5054833;28;20179;-66
2022/09/30 04:58:00;;;;;;;0.70;0.70;;;8.40;99.90;8.80;100706.00;;;;5069883;28;20226;-66
2022/09/30 05:00:26;;;;;;;0.90;0.90;;;8.40;99.90;9.20;100735.00;;;;5070055;28;20257;-66
2022/09/30 05:02:57;;;;;;;0.70;0.70;;;8.60;99.90;8.70;100712.00;;;;5069852;28;20278;-66
2022/09/30 05:05:24;;;;;;;2.03;1.93;;;8.50;99.90;9.10;100717.00;;;;5070132;28;20185;-66
2022/09/30 05:07:52;;;;;;;1.90;1.90;;;8.60;99.90;8.90;100732.00;;;;5069796;28;20170;-66
2022/09/30 05:10:18;;;;;;;1.30;1.30;;;8.60;99.90;9.10;100729.00;;;;5069346;28;20660;-66
2022/09/30 05:12:44;;;;;;;0.70;0.70;;;8.60;99.90;9.10;100728.00;;;;5070089;28;20243;-65
2022/09/30 05:15:11;;;;;;;1.73;1.73;;;8.60;99.90;9.30;100734.00;;;;5054233;28;20273;-66
2022/09/30 05:17:42;;;;;;;1.17;1.10;;;8.70;99.90;8.90;100734.00;;;;5054642;28;20177;-67
2022/09/30 05:20:11;;;;;;;0.80;0.80;;;8.80;99.90;8.60;100744.00;;;;5054245;28;20182;-67
2022/09/30 05:22:39;;;;;;;1.17;1.17;;;8.70;99.90;9.10;100733.00;;;;5054176;28;20276;-66
2022/09/30 05:25:06;;;;;;;0.80;0.80;;;8.70;99.90;8.80;100745.00;;;;5053174;28;20327;-67
2022/09/30 05:27:32;;;;;;;0.70;0.70;;;8.60;99.90;9.00;100732.00;;;;5070095;28;20202;-67
2022/09/30 05:30:01;;;;;;;1.67;1.67;;;8.60;99.90;9.60;100733.00;;;;5069534;28;20270;-67
2022/09/30 05:32:28;;;;;;;1.33;1.33;;;8.80;99.90;9.60;100737.00;;;;5053997;28;20216;-66
2022/09/30 05:34:56;;;;;;;1.30;1.30;;;9.00;99.90;9.80;100736.00;;;;5069600;28;20174;-67
2022/09/30 05:37:25;;;;;;;0.80;0.80;;;9.10;99.90;9.50;100738.00;;;;5068977;28;20639;-67
2022/09/30 05:39:54;;;;;;;1.50;1.50;;;9.10;99.90;9.60;100741.00;;;;5054217;28;20193;-67
2022/09/30 05:42:25;;;;;;;1.33;1.33;;;9.00;99.90;9.10;100737.00;;;;5053278;28;20266;-66
2022/09/30 05:44:51;;;;;;;1.50;1.50;;;8.80;99.90;9.00;100752.00;;;;5078125;28;20516;-66
2022/09/30 05:47:17;;;;;;;0.70;0.70;;;8.70;99.90;9.50;100757.00;;;;5089497;28;20182;-66
2022/09/30 05:49:44;;;;;;;0.90;0.90;;;8.90;99.90;9.40;100756.00;;;;5089462;28;20273;-66
2022/09/30 05:52:16;;;;;;;1.00;1.00;;;8.90;99.90;9.50;100765.00;;;;5089542;28;20204;-66
2022/09/30 05:54:49;;;;;;;0.70;0.70;;;9.00;99.90;9.30;100756.00;;;;5088840;28;20173;-66
2022/09/30 05:57:16;;;;;;;0.90;0.90;;;8.90;99.90;9.40;100765.00;;;;5089397;28;20177;-66
2022/09/30 05:59:47;;;;;;;0.80;0.80;;;8.90;99.90;9.20;100761.00;;;;5088881;28;20180;-66
2022/09/30 06:02:13;;;;;;;0.90;0.90;;;8.90;99.90;9.00;100768.00;;;;5089391;28;20655;-66
2022/09/30 06:04:44;;;;;;;0.60;0.60;;;8.80;99.90;8.60;100708.00;;;;5072038;28;20185;-66
2022/09/30 06:07:16;;;;;;;1.13;1.13;;;8.60;99.90;9.00;100760.00;;;;5073641;28;20234;-66
2022/09/30 06:09:42;;;;;;;1.93;1.33;;;8.60;99.90;9.00;100773.00;;;;5089176;28;20212;-66
2022/09/30 06:12:11;;;;;;;0.77;0.77;;;8.60;99.90;8.80;100776.00;;;;5073300;28;20205;-66
2022/09/30 06:14:37;;;;;;;0.80;0.80;;;8.60;99.90;8.80;100788.00;;;;5088868;28;20268;-66
2022/09/30 06:17:05;;;;;;;0.80;0.80;;;8.50;99.90;8.80;100768.00;;;;5088945;28;20276;-66
2022/09/30 06:19:34;;;;;;;0.97;0.97;;;8.60;99.90;8.60;100728.00;;;;5088687;28;20238;-66
2022/09/30 06:22:00;;;;;;;0.70;0.70;;;8.50;99.90;8.60;100785.00;;;;5072187;28;20182;-66
2022/09/30 06:24:31;;;;;;;1.93;1.83;;;8.50;99.90;8.40;100790.00;;;;5073415;28;20174;-66
2022/09/30 06:26:59;;;;;;;0.70;0.70;;;8.40;99.90;8.70;100785.00;;;;5055510;28;20199;-66
2022/09/30 06:29:30;;;;;;;2.87;2.77;;;8.50;99.90;8.40;100797.00;;;;5055576;28;20579;-66
2022/09/30 06:31:56;;;;;;;0.60;0.60;;;8.50;99.90;8.50;100804.00;;;;5088552;28;20217;-66
2022/09/30 06:34:27;;;;;;;0.60;0.60;;;8.50;99.90;8.30;100803.00;;;;5055276;28;20216;-65
2022/09/30 06:36:58;;;;;;;0.70;0.70;;;8.40;99.90;8.70;100802.00;;;;5073080;28;20169;-66
2022/09/30 06:39:29;;;;;;;0.70;0.70;;;8.60;99.90;8.70;100755.00;;;;5072058;28;20170;-66
2022/09/30 06:41:55;;;;;;;1.00;1.00;;;8.60;99.90;9.10;100811.00;;;;5071844;28;20164;-66
2022/09/30 06:44:21;;;;;;;1.00;1.00;;;8.80;99.90;8.80;100752.00;;;;5073007;28;20174;-66
2022/09/30 06:46:47;;;;;;;1.47;1.47;;;8.80;99.90;8.80;100802.00;;;;5089028;28;20256;-66
2022/09/30 06:49:18;;;;;;;0.70;0.70;;;8.80;99.90;8.90;100801.00;;;;5073255;28;20187;-66
2022/09/30 06:51:44;;;;;;;0.80;0.80;;;8.90;99.90;8.90;100801.00;;;;5071794;28;20193;-66
2022/09/30 06:54:10;;;;;;;0.50;0.50;;;8.90;99.90;9.20;100806.00;;;;5075238;28;20196;-66
2022/09/30 06:56:38;;;;;;;1.03;1.03;;;9.00;99.90;9.50;100807.00;;;;5076626;28;20173;-66
2022/09/30 06:59:15;;;;;;;0.80;0.80;;;9.30;99.90;9.40;100799.00;;;;5076108;28;20621;-66
2022/09/30 07:01:46;;;;;;;0.50;0.50;;;9.30;99.90;9.50;100803.00;;;;5076843;28;20178;-65
2022/09/30 07:04:12;;;;;;;0.60;0.60;;;9.50;99.90;10.20;100803.00;;;;5075691;28;20180;-66
2022/09/30 07:06:44;;;;;;;0.83;0.83;;;9.90;99.90;9.90;100806.00;;;;5076784;28;20175;-66
2022/09/30 07:09:31;;;;;;;0.50;0.50;;;9.80;99.90;9.80;100775.00;;;;5075479;28;20180;-66
2022/09/30 07:12:06;;;;;;;1.90;1.70;;;9.80;99.90;10.70;100748.00;;;;5074875;28;20213;-66
2022/09/30 07:15:15;;;;;;;0.50;0.50;;;10.10;99.90;11.00;100814.00;;;;5092150;28;20187;-66
2022/09/30 07:18:13;;;;;;;0.50;0.50;;;10.50;99.90;11.70;100799.00;;;;5074109;28;20178;-66
2022/09/30 07:20:39;;;;;;;1.20;1.20;;;10.90;99.90;11.30;100767.00;;;;5059856;28;20613;-67
2022/09/30 07:23:05;;;;;;;1.67;1.57;;;11.30;99.90;12.90;100789.00;;;;5076697;28;20170;-67
2022/09/30 07:25:32;;;;;;;1.13;1.00;;;12.00;99.90;13.80;100790.00;;;;5076276;28;20180;-67
2022/09/30 07:28:03;;;;;;;2.40;2.30;;;12.90;99.90;14.30;100758.00;;;;5091838;28;20187;-67
2022/09/30 07:30:30;;;;;;;1.47;1.43;;;13.60;99.90;14.30;100750.00;;;;5092210;28;20190;-66
2022/09/30 07:32:56;;;;;;;0.30;0.30;;;13.60;99.90;14.70;100789.00;;;;5108470;28;20220;-67
2022/09/30 07:35:22;;;;;;;0.50;0.50;;;13.90;99.90;13.80;100795.00;;;;5076463;28;20206;-66
2022/09/30 07:37:49;;;;;;;0.50;0.50;;;14.00;99.90;13.90;100793.00;;;;5076571;28;20180;-67
2022/09/30 07:40:15;;;;;;;1.27;1.20;;;13.60;99.90;13.60;100792.00;;;;5075968;28;20200;-67
2022/09/30 07:42:44;;;;;;;0.87;0.87;;;13.60;99.90;13.10;100786.00;;;;5069284;28;20200;-66
2022/09/30 07:45:14;;;;;;;0.30;0.30;;;13.30;99.90;13.40;100783.00;;;;5075193;28;20385;-67
2022/09/30 07:47:40;;;;;;;0.53;0.53;;;13.30;99.90;13.40;100781.00;;;;5074653;28;20656;-67
2022/09/30 07:50:09;;;;;;;0.40;0.40;;;13.30;99.90;13.20;100767.00;;;;5076191;28;20173;-67
2022/09/30 07:52:38;;;;;;;1.07;1.03;;;13.30;99.90;14.00;100788.00;;;;5074483;28;20207;-67
2022/09/30 07:55:11;;;;;;;0.63;0.63;;;13.60;99.90;14.70;100785.00;;;;5070721;28;20180;-67
2022/09/30 07:57:37;;;;;;;0.40;0.40;;;14.10;99.90;14.90;100797.00;;;;5073418;28;20643;-67
2022/09/30 08:00:12;;;;;;;0.20;0.20;;;14.40;99.90;16.90;100769.00;;;;5075992;28;20184;-67
2022/09/30 08:02:42;;;;;;;0.67;0.67;;;15.60;99.90;16.70;100816.00;;;;5091182;28;20197;-67
2022/09/30 08:05:51;;;;;;;0.83;0.83;;;16.00;99.90;14.90;100796.00;;;;5075309;28;20179;-67
2022/09/30 08:08:45;;;;;;;0.50;0.50;;;14.90;99.90;14.00;100784.00;;;;5073888;28;20205;-66
2022/09/30 08:11:41;;;;;;;0.53;0.53;;;14.00;99.90;14.50;100739.00;;;;5091284;28;20179;-75
2022/09/30 08:14:44;;;;;;;0.20;0.20;;;14.20;99.90;14.70;100786.00;;;;5071207;28;20606;-67
2022/09/30 08:17:32;;;;;;;0.20;0.20;;;14.50;99.90;15.00;100788.00;;;;5073009;28;20244;-67
2022/09/30 08:20:01;;;;;;;0.20;0.20;;;14.80;99.90;16.60;100802.00;;;;5074132;28;20188;-68
2022/09/30 08:22:27;;;;;;;0.63;0.63;;;15.50;99.90;16.70;100768.00;;;;5091100;28;20210;-67
2022/09/30 08:24:52;;;;;;;0.47;0.47;;;16.10;99.90;16.30;100812.00;;;;5074234;28;20183;-67
2022/09/30 08:27:41;;;;;;;0.20;0.20;;;16.30;99.90;17.20;100822.00;;;;5074069;28;20170;-67
2022/09/30 08:30:32;;;;;;;0.40;0.40;;;16.70;99.90;16.70;100812.00;;;;5068745;28;20305;-67
2022/09/30 08:33:03;;;;;;;0.20;0.20;;;16.40;99.90;17.20;100816.00;;;;5059159;28;20578;-67
2022/09/30 08:35:50;;;;;;;0.20;0.20;;;16.60;99.90;16.50;100798.00;;;;5073965;28;20231;-67
2022/09/30 08:38:44;;;;;;;0.30;0.30;;;16.40;99.90;15.40;100814.00;;;;5073921;28;20616;-67
2022/09/30 08:41:39;;;;;;;0.20;0.20;;;15.90;99.90;16.60;100794.00;;;;5074216;28;20187;-67
2022/09/30 08:44:32;;;;;;;1.27;1.17;;;16.20;99.90;16.90;100825.00;;;;5073652;28;20178;-67
2022/09/30 08:47:34;;;;;;;0.63;0.63;;;16.60;99.90;16.90;100833.00;;;;5073326;28;20255;-66
2022/09/30 08:50:34;;;;;;;0.30;0.30;;;16.70;99.90;17.00;100848.00;;;;5074874;28;20183;-71
2022/09/30 08:53:30;;;;;;;0.47;0.47;;;16.80;99.90;16.80;100825.00;;;;5074497;28;20183;-68
2022/09/30 08:56:26;;;;;;;0.20;0.20;;;16.70;99.90;17.50;100846.00;;;;5073945;28;20191;-73
2022/09/30 08:59:05;;;;;;;0.20;0.20;;;16.70;99.90;17.30;100801.00;;;;5073577;28;20191;-68
2022/09/30 09:01:50;;;;;;;0.22;0.22;;;17.10;99.90;17.90;100864.00;;;;5073425;28;20551;-68
2022/09/30 09:04:21;;;;;;;0.50;0.50;;;17.50;99.90;18.10;100870.00;;;;5073329;28;20203;-66
2022/09/30 09:07:41;;;;;;;1.27;1.20;;;17.50;99.90;17.10;100843.00;;;;5073390;28;20630;-66
2022/09/30 09:10:42;;;;;;;0.30;0.30;;;17.30;99.90;17.00;100852.00;;;;5074334;28;20635;-66
2022/09/30 09:13:59;;;;;;;0.20;0.20;;;17.00;99.90;18.70;100884.00;;;;5074314;28;20193;-66
2022/09/30 09:16:44;;;;;;;0.68;0.68;;;17.70;99.90;17.90;100874.00;;;;5073566;28;20642;-66
2022/09/30 09:19:41;;;;;;;0.10;0.10;;;17.70;99.90;19.60;100898.00;;;;5074471;28;20615;-66
2022/09/30 09:22:23;;;;;;;0.30;0.30;;;18.30;99.90;17.50;100880.00;;;;5072768;28;20357;-66
2022/09/30 09:24:54;;;;;;;0.20;0.20;;;17.90;99.90;18.40;100890.00;;;;5073160;28;20188;-66
2022/09/30 09:27:37;;;;;;;0.10;0.10;;;17.70;99.90;19.50;100916.00;;;;5073208;28;20180;-67
2022/09/30 09:30:32;;;;;;;0.20;0.20;;;18.50;99.90;19.50;100913.00;;;;5074076;28;20619;-66
2022/09/30 09:33:42;;;;;;;0.22;0.22;;;18.40;99.90;20.70;100936.00;;;;5072569;28;20212;-66
2022/09/30 09:36:39;;;;;;;1.35;1.10;;;19.50;99.90;17.30;100900.00;;;;5073174;28;20242;-66
2022/09/30 09:39:38;;;;;;;1.80;1.58;;;18.20;99.90;18.00;100913.00;;;;5072540;28;20234;-66
2022/09/30 09:42:50;;;;;;;0.90;0.68;;;17.80;99.90;17.20;100886.00;;;;5066941;28;20693;-65
2022/09/30 09:45:42;;;;;;;2.07;1.93;;;16.90;99.90;18.50;100889.00;;;;5066802;28;20229;-66
2022/09/30 09:48:21;;;;;;;2.60;2.40;;;17.30;99.90;17.40;100902.00;;;;5106632;28;20187;-67
2022/09/30 09:51:38;;;;;;;0.17;0.17;;;17.40;99.90;17.80;100887.00;;;;5105783;28;20164;-67
2022/09/30 09:54:20;;;;;;;0.67;0.67;;;17.10;99.90;19.10;100919.00;;;;5105758;28;20527;-67
2022/09/30 09:57:31;;;;;;;0.52;0.52;;;18.00;99.90;19.50;100929.00;;;;5102935;28;20197;-67
2022/09/30 10:03:25;;;;;;;0.55;0.50;;;19.00;99.90;20.20;100938.00;;;;5081092;28;20217;-68
2022/09/30 10:06:12;;;;;;;0.52;0.52;;;19.50;99.90;19.50;100930.00;;;;5085070;28;20178;-68
2022/09/30 10:09:27;;;;;;;0.45;0.45;;;19.40;99.90;19.70;100930.00;;;;5085265;28;20178;-67
2022/09/30 10:12:10;;;;;;;2.35;1.17;;;19.20;99.90;19.00;100917.00;;;;5053411;28;20264;-68
2022/09/30 10:18:41;;;;;;;0.95;0.60;;;18.10;99.90;18.80;100872.00;;;;5052906;28;20293;-67
2022/09/30 10:34:12;;;;;;;0.20;0.20;;;17.80;99.90;20.30;100917.00;;;;5148191;27;20544;-67
2022/09/30 10:36:47;;;;;;;0.10;0.10;;;18.70;99.90;19.60;100895.00;;;;5076591;28;20289;-67
2022/09/30 10:39:41;;;;;;;0.10;0.10;;;19.00;99.90;19.30;100935.00;;;;5071851;28;20277;-67
2022/09/30 10:42:24;;;;;;;0.90;0.90;;;18.70;99.90;19.80;100937.00;;;;5071340;28;20197;-67
2022/09/30 10:45:10;;;;;;;0.10;0.10;;;19.00;99.90;20.70;100937.00;;;;5071493;28;20187;-67
2022/09/30 10:48:22;;;;;;;0.43;0.40;;;19.30;99.90;20.30;100943.00;;;;5070671;28;20648;-66
2022/09/30 10:51:32;;;;;;;0.30;0.30;;;19.20;99.90;20.80;100917.00;;;;5072678;28;20276;-67
2022/09/30 10:53:59;;;;;;;7.35;2.17;;;20.10;99.90;20.60;100942.00;;;;5071394;28;20295;-67
2022/09/30 10:57:14;;;;;;;1.75;1.65;;;19.60;99.90;19.90;100958.00;;;;5071289;28;20189;-67
2022/09/30 10:59:44;;;;;;;3.20;1.52;;;19.30;99.90;19.30;100951.00;;;;5059349;28;20239;-67
2022/09/30 11:02:33;;;;;;;2.55;0.85;;;18.90;99.90;18.60;100954.00;;;;5100108;28;20211;-66
2022/09/30 11:05:18;;;;;;;0.65;0.65;;;18.40;99.90;18.80;100956.00;;;;5130982;28;20229;-67
2022/09/30 11:08:08;;;;;;;0.20;0.20;;;18.60;99.90;18.30;100944.00;;;;5131243;28;20253;-66
2022/09/30 11:10:44;;;;;;;0.77;0.77;;;18.20;99.90;18.30;100906.00;;;;5130920;27;20176;-67
2022/09/30 11:13:53;;;;;;;2.90;1.17;;;18.00;99.90;18.90;100949.00;;;;5113332;28;20254;-66
2022/09/30 11:16:45;;;;;;;1.20;1.20;;;18.20;99.90;19.80;100947.00;;;;5067351;28;20201;-66
2022/09/30 11:19:24;;;;;;;0.75;0.38;;;18.80;99.90;20.40;100914.00;;;;5151561;27;20640;-67
2022/09/30 11:22:01;;;;;;;1.98;1.02;;;19.60;99.90;20.50;100950.00;;;;5133001;27;20190;-67
2022/09/30 11:28:03;;;;;;;0.88;0.88;;;19.90;99.90;21.20;100956.00;;;;5103788;28;20635;-67
2022/09/30 11:30:48;;;;;;;0.10;0.10;;;20.00;99.90;19.20;100971.00;;;;5130729;28;20183;-66
2022/09/30 11:33:37;;;;;;;4.38;1.75;;;19.00;99.90;20.90;100958.00;;;;5130026;28;20217;-66
2022/09/30 11:36:33;;;;;;;0.90;0.90;;;19.60;99.90;19.80;100964.00;;;;5112182;28;20629;-67
2022/09/30 11:39:22;;;;;;;0.10;0.10;;;19.80;99.90;20.30;100974.00;;;;5120747;28;20199;-66
2022/09/30 11:42:29;;;;;;;2.33;0.95;;;19.50;99.90;18.90;100979.00;;;;5130634;28;20255;-66
2022/09/30 11:45:26;;;;;;;1.08;0.63;;;18.90;99.90;19.60;100935.00;;;;5013757;28;20729;-66
2022/09/30 11:48:20;;;;;;;1.65;1.17;;;18.90;99.90;19.60;100970.00;;;;5013663;28;20218;-66
2022/09/30 11:51:24;;;;;;;0.60;0.60;;;19.00;99.90;19.90;100913.00;;;;5106844;27;20248;-66
2022/09/30 11:54:25;;;;;;;1.67;1.57;;;19.10;99.90;17.60;100956.00;;;;5086051;27;20194;-66
2022/09/30 11:57:17;;;;;;;3.30;0.87;;;17.80;99.90;18.20;100932.00;;;;5111454;27;20211;-66
2022/09/30 12:00:13;;;;;;;2.23;1.73;;;17.70;99.90;17.30;100919.00;;;;5081484;28;20488;-66
2022/09/30 12:02:57;;;;;;;0.37;0.37;;;17.20;99.90;18.80;100897.00;;;;5086605;28;20623;-66
2022/09/30 12:05:36;;;;;;;0.10;0.10;;;17.70;99.90;20.20;100936.00;;;;5098677;28;20169;-66
2022/09/30 12:08:27;;;;;;;0.10;0.10;;;18.80;99.90;20.10;100929.00;;;;5097934;28;20194;-66
2022/09/30 12:11:35;;;;;;;2.53;2.33;;;19.20;99.90;20.00;100924.00;;;;5098272;28;20191;-66
2022/09/30 12:14:15;;;;;;;1.20;1.13;;;19.50;99.90;19.20;100927.00;;;;5085156;28;20191;-65
2022/09/30 12:16:44;;;;;;;0.10;0.10;;;18.70;99.90;20.70;100924.00;;;;5097751;28;20190;-65
2022/09/30 12:19:34;;;;;;;0.60;0.40;;;19.30;99.90;19.90;100931.00;;;;5097716;28;20542;-66